M.volkan — TCQB7 — position and weather

sailwx.info

Track history (hours):
 
Tides and Currents Weather Stations Pressure Air Temp Water Temp Dewpoint Dewpoint Depression Visibility Wind Speed Wind Dir Waves Ship Positions

M.volkan

Last reported at 2018-Feb-08 01:28 UTC. Time now 2018-Feb-25 05:57 UTC.
Position N 36°48' E 030°35'.
Warning: this ship's position is 17 days out of date.

Length 19 m.

Type: Fishing. MMSI: 271072343.

Date/timePositionNaut miles runAvg speedWind from/ knotsBaromVisibWave heightAir tempDewpointWater temp
2018-Feb-08 01:28N 36°48' E 030°35'0 0.0
2018-Feb-08 00:58N 36°48' E 030°35'0 0.0
2018-Feb-08 00:28N 36°48' E 030°35'0 0.0
2018-Feb-07 23:58N 36°48' E 030°35'0 0.0
2018-Feb-07 23:28N 36°48' E 030°35'0 0.0
2018-Feb-07 22:58N 36°48' E 030°35'0 0.0
2018-Feb-07 22:28N 36°48' E 030°35'0 0.0
2018-Feb-07 21:58N 36°48' E 030°35'0 0.0
2018-Feb-07 21:28N 36°48' E 030°35'15 1.2
2018-Feb-07 09:30N 36°45' E 030°53'1 2.7
2018-Feb-07 08:59N 36°45' E 030°54'3 1.2
2018-Feb-07 06:22N 36°48' E 030°55'1 2.6
2018-Feb-07 05:56N 36°48' E 030°54'1 2.7
2018-Feb-07 05:27N 36°48' E 030°52'1 2.7
2018-Feb-07 05:00N 36°48' E 030°51'1 2.6
2018-Feb-07 04:29N 36°49' E 030°49'3 5.3
2018-Feb-07 04:00N 36°49' E 030°46'4 8.0
2018-Feb-07 03:30N 36°48' E 030°41'4 7.6
2018-Feb-07 03:00N 36°48' E 030°36'1 2.1
2018-Feb-07 02:29N 36°48' E 030°35'0 0.0
2018-Feb-07 01:59N 36°48' E 030°35'0 0.0
2018-Feb-07 01:26N 36°48' E 030°35'0 0.0
2018-Feb-07 00:50N 36°48' E 030°35'0 0.0
2018-Feb-07 00:29N 36°48' E 030°35'0 0.0
2018-Feb-06 23:59N 36°48' E 030°35'0 0.0
2018-Feb-06 23:23N 36°48' E 030°35'0 0.0
2018-Feb-06 22:56N 36°48' E 030°35'0 0.0
2018-Feb-06 22:17N 36°48' E 030°35'0 0.0
2018-Feb-06 21:50N 36°48' E 030°35'0 0.0
2018-Feb-06 21:26N 36°48' E 030°35'0 0.0
2018-Feb-06 20:56N 36°48' E 030°35'0 0.0
2018-Feb-06 20:29N 36°48' E 030°35'0 0.0
2018-Feb-06 19:35N 36°48' E 030°35'0 0.0
2018-Feb-06 19:26N 36°48' E 030°35'0 0.0
2018-Feb-06 18:56N 36°48' E 030°35'0 0.0
2018-Feb-06 18:29N 36°48' E 030°35'0 0.0
2018-Feb-06 17:59N 36°48' E 030°35'3 5.2
2018-Feb-06 17:30N 36°48' E 030°38'4 8.6
2018-Feb-06 17:00N 36°48' E 030°43'4 8.6
2018-Feb-06 16:30N 36°48' E 030°49'0 0.7
2018-Feb-06 16:00N 36°48' E 030°49'1 2.9
2018-Feb-06 15:30N 36°47' E 030°51'1 2.6
2018-Feb-06 14:58N 36°47' E 030°53'1 0.6
2018-Feb-06 12:41N 36°48' E 030°54'0 2.6
2018-Feb-06 12:30N 36°48' E 030°54'1 2.5
2018-Feb-06 11:55N 36°48' E 030°52'1 2.4
2018-Feb-06 11:30N 36°48' E 030°51'1 2.3
2018-Feb-06 10:58N 36°48' E 030°49'0 0.3
2018-Feb-06 10:30N 36°48' E 030°49'1 2.8
2018-Feb-06 10:00N 36°48' E 030°51'1 2.8
2018-Feb-06 09:29N 36°48' E 030°53'2 0.5
2018-Feb-06 06:02N 36°48' E 030°55'0 2.6
2018-Feb-06 06:00N 36°48' E 030°55'2 2.5
2018-Feb-06 05:23N 36°48' E 030°53'1 2.4
2018-Feb-06 05:00N 36°48' E 030°52'1 2.4
2018-Feb-06 04:29N 36°48' E 030°50'1 2.9
2018-Feb-06 04:00N 36°48' E 030°48'1 1.6
2018-Feb-06 03:30N 36°49' E 030°49'1 2.4
2018-Feb-06 03:00N 36°49' E 030°51'1 2.6
2018-Feb-06 02:25N 36°48' E 030°53'2 2.7
2018-Feb-06 01:47N 36°49' E 030°55'14 0.4
2018-Feb-04 15:21N 36°48' E 030°37'3 8.9
2018-Feb-04 15:00N 36°48' E 030°41'5 8.5
2018-Feb-04 14:28N 36°48' E 030°47'1 1.5
2018-Feb-04 14:00N 36°48' E 030°48'1 2.2
2018-Feb-04 13:30N 36°48' E 030°49'1 2.7
2018-Feb-04 13:00N 36°47' E 030°50'1 2.7
2018-Feb-04 12:30N 36°46' E 030°51'1 2.7
2018-Feb-04 12:00N 36°45' E 030°53'1 2.7
2018-Feb-04 11:30N 36°45' E 030°54'4 2.3
2018-Feb-04 09:40N 36°41' E 030°57'8 0.9
2018-Feb-04 00:37N 36°49' E 030°54'0 3.0
2018-Feb-04 00:28N 36°49' E 030°54'1 1.7
2018-Feb-04 00:00N 36°49' E 030°55'8 0.5
2018-Feb-03 08:44N 36°41' E 030°57'1 4.2
2018-Feb-03 08:24N 36°42' E 030°55'3 8.1
2018-Feb-03 07:59N 36°45' E 030°57'3 2.0
2018-Feb-03 06:30N 36°47' E 030°53'1 2.5
2018-Feb-03 06:00N 36°47' E 030°52'1 2.3
2018-Feb-03 05:30N 36°47' E 030°50'1 2.3
2018-Feb-03 05:00N 36°47' E 030°49'8 8.0
2018-Feb-03 04:00N 36°48' E 030°39'3 6.5
2018-Feb-03 03:29N 36°48' E 030°35'0 0.0
2018-Feb-03 01:59N 36°48' E 030°35'0 0.0
2018-Feb-03 01:23N 36°48' E 030°35'0 0.0
2018-Feb-03 00:59N 36°48' E 030°35'0 0.0
2018-Feb-03 00:29N 36°48' E 030°35'0 0.0
2018-Feb-02 23:53N 36°48' E 030°35'0 0.0
2018-Feb-02 23:29N 36°48' E 030°35'0 0.0
2018-Feb-02 22:53N 36°48' E 030°35'0 0.0
2018-Feb-02 22:29N 36°48' E 030°35'0 0.0
2018-Feb-02 21:32N 36°48' E 030°35'0 0.0
2018-Feb-02 21:29N 36°48' E 030°35'0 0.0
2018-Feb-02 20:58N 36°48' E 030°35'4 8.2
2018-Feb-02 20:30N 36°48' E 030°40'5 9.3
2018-Feb-02 20:01N 36°48' E 030°45'10 2.1
2018-Feb-02 15:30N 36°42' E 030°54'2 2.1
2018-Feb-02 14:25N 36°41' E 030°56'  
2018-Jan-31 06:28N 36°47' E 030°58'0 1.1
2018-Jan-31 06:00N 36°47' E 030°57'1 2.6
2018-Jan-31 05:29N 36°47' E 030°55'1 2.5
2018-Jan-31 05:00N 36°47' E 030°54'1 2.5
2018-Jan-31 04:30N 36°47' E 030°52'2 2.7
2018-Jan-31 03:57N 36°48' E 030°50'1 2.7
2018-Jan-31 03:30N 36°48' E 030°49'2 3.4
2018-Jan-31 03:00N 36°49' E 030°47'3 6.9
2018-Jan-31 02:30N 36°48' E 030°43'4 7.4
2018-Jan-31 02:00N 36°48' E 030°38'3 4.5
2018-Jan-31 01:25N 36°48' E 030°35'0 0.0
2018-Jan-31 00:55N 36°48' E 030°35'0 0.0
2018-Jan-30 23:19N 36°48' E 030°35'0 0.0
2018-Jan-30 22:55N 36°48' E 030°35'0 0.0
2018-Jan-30 22:28N 36°48' E 030°35'0 0.0
2018-Jan-30 20:37N 36°48' E 030°35'0 0.0
2018-Jan-30 20:28N 36°48' E 030°35'0 0.0
2018-Jan-30 19:58N 36°48' E 030°35'0 0.0
2018-Jan-30 19:28N 36°48' E 030°35'0 0.0
2018-Jan-30 18:58N 36°48' E 030°35'0 0.0
2018-Jan-30 18:28N 36°48' E 030°35'0 0.0
2018-Jan-30 17:58N 36°48' E 030°35'0 0.0
2018-Jan-30 17:28N 36°48' E 030°35'0 0.0
2018-Jan-30 04:22N 36°48' E 030°35'0 0.0
2018-Jan-30 03:52N 36°48' E 030°35'0 0.0
2018-Jan-29 23:52N 36°48' E 030°35'0 0.0
2018-Jan-29 23:16N 36°48' E 030°35'0 0.0
2018-Jan-29 22:46N 36°48' E 030°35'0 0.0
2018-Jan-29 22:28N 36°48' E 030°35'0 0.0
2018-Jan-29 21:58N 36°48' E 030°35'0 0.0
2018-Jan-29 21:28N 36°48' E 030°35'0 0.0
2018-Jan-29 20:58N 36°48' E 030°35'0 0.0
2018-Jan-29 18:10N 36°48' E 030°35'0 0.0
2018-Jan-29 17:46N 36°48' E 030°35'0 0.0
2018-Jan-29 17:22N 36°48' E 030°35'0 0.0
2018-Jan-29 09:10N 36°48' E 030°35'0 0.0
2018-Jan-29 08:58N 36°48' E 030°35'0 0.0
2018-Jan-29 08:28N 36°48' E 030°35'0 0.0
2018-Jan-29 08:00N 36°48' E 030°35'0 0.0
2018-Jan-29 07:30N 36°48' E 030°35'0 0.0
2018-Jan-29 07:00N 36°48' E 030°35'0 0.0
2018-Jan-29 06:30N 36°48' E 030°35'0 0.0
2018-Jan-29 06:00N 36°48' E 030°35'0 0.0
2018-Jan-29 05:30N 36°48' E 030°35'0 0.0
2018-Jan-29 05:00N 36°48' E 030°35'0 0.0
2018-Jan-29 04:30N 36°48' E 030°35'0 0.0
2018-Jan-29 04:00N 36°48' E 030°35'0 0.0
2018-Jan-29 03:30N 36°48' E 030°35'0 0.0
2018-Jan-29 03:00N 36°48' E 030°35'0 0.0
2018-Jan-29 02:30N 36°48' E 030°35'0 0.0
2018-Jan-29 02:00N 36°48' E 030°35'0 0.0
2018-Jan-29 01:30N 36°48' E 030°35'  
Track history (hours):
 
Tides and Currents Weather Stations Pressure Air Temp Water Temp Dewpoint Dewpoint Depression Visibility Wind Speed Wind Dir Waves Ship Positions

M.volkan

Last reported at 2018-Feb-08 01:28 UTC. Time now 2018-Feb-25 05:57 UTC.
Position N 36°48' E 030°35'.
Warning: this ship's position is 17 days out of date.

Length 19 m.

Type: Fishing. MMSI: 271072343.

Date/timePositionNaut miles runAvg speedWind from/ knotsBaromVisibWave heightAir tempDewpointWater temp
2018-Feb-08 01:28N 36°48' E 030°35'0 0.0
2018-Feb-08 00:58N 36°48' E 030°35'0 0.0
2018-Feb-08 00:28N 36°48' E 030°35'0 0.0
2018-Feb-07 23:58N 36°48' E 030°35'0 0.0
2018-Feb-07 23:28N 36°48' E 030°35'0 0.0
2018-Feb-07 22:58N 36°48' E 030°35'0 0.0
2018-Feb-07 22:28N 36°48' E 030°35'0 0.0
2018-Feb-07 21:58N 36°48' E 030°35'0 0.0
2018-Feb-07 21:28N 36°48' E 030°35'15 1.2
2018-Feb-07 09:30N 36°45' E 030°53'1 2.7
2018-Feb-07 08:59N 36°45' E 030°54'3 1.2
2018-Feb-07 06:22N 36°48' E 030°55'1 2.6
2018-Feb-07 05:56N 36°48' E 030°54'1 2.7
2018-Feb-07 05:27N 36°48' E 030°52'1 2.7
2018-Feb-07 05:00N 36°48' E 030°51'1 2.6
2018-Feb-07 04:29N 36°49' E 030°49'3 5.3
2018-Feb-07 04:00N 36°49' E 030°46'4 8.0
2018-Feb-07 03:30N 36°48' E 030°41'4 7.6
2018-Feb-07 03:00N 36°48' E 030°36'1 2.1
2018-Feb-07 02:29N 36°48' E 030°35'0 0.0
2018-Feb-07 01:59N 36°48' E 030°35'0 0.0
2018-Feb-07 01:26N 36°48' E 030°35'0 0.0
2018-Feb-07 00:50N 36°48' E 030°35'0 0.0
2018-Feb-07 00:29N 36°48' E 030°35'0 0.0
2018-Feb-06 23:59N 36°48' E 030°35'0 0.0
2018-Feb-06 23:23N 36°48' E 030°35'0 0.0
2018-Feb-06 22:56N 36°48' E 030°35'0 0.0
2018-Feb-06 22:17N 36°48' E 030°35'0 0.0
2018-Feb-06 21:50N 36°48' E 030°35'0 0.0
2018-Feb-06 21:26N 36°48' E 030°35'0 0.0
2018-Feb-06 20:56N 36°48' E 030°35'0 0.0
2018-Feb-06 20:29N 36°48' E 030°35'0 0.0
2018-Feb-06 19:35N 36°48' E 030°35'0 0.0
2018-Feb-06 19:26N 36°48' E 030°35'0 0.0
2018-Feb-06 18:56N 36°48' E 030°35'0 0.0
2018-Feb-06 18:29N 36°48' E 030°35'0 0.0
2018-Feb-06 17:59N 36°48' E 030°35'3 5.2
2018-Feb-06 17:30N 36°48' E 030°38'4 8.6
2018-Feb-06 17:00N 36°48' E 030°43'4 8.6
2018-Feb-06 16:30N 36°48' E 030°49'0 0.7
2018-Feb-06 16:00N 36°48' E 030°49'1 2.9
2018-Feb-06 15:30N 36°47' E 030°51'1 2.6
2018-Feb-06 14:58N 36°47' E 030°53'1 0.6
2018-Feb-06 12:41N 36°48' E 030°54'0 2.6
2018-Feb-06 12:30N 36°48' E 030°54'1 2.5
2018-Feb-06 11:55N 36°48' E 030°52'1 2.4
2018-Feb-06 11:30N 36°48' E 030°51'1 2.3
2018-Feb-06 10:58N 36°48' E 030°49'0 0.3
2018-Feb-06 10:30N 36°48' E 030°49'1 2.8
2018-Feb-06 10:00N 36°48' E 030°51'1 2.8
2018-Feb-06 09:29N 36°48' E 030°53'2 0.5
2018-Feb-06 06:02N 36°48' E 030°55'0 2.6
2018-Feb-06 06:00N 36°48' E 030°55'2 2.5
2018-Feb-06 05:23N 36°48' E 030°53'1 2.4
2018-Feb-06 05:00N 36°48' E 030°52'1 2.4
2018-Feb-06 04:29N 36°48' E 030°50'1 2.9
2018-Feb-06 04:00N 36°48' E 030°48'1 1.6
2018-Feb-06 03:30N 36°49' E 030°49'1 2.4
2018-Feb-06 03:00N 36°49' E 030°51'1 2.6
2018-Feb-06 02:25N 36°48' E 030°53'2 2.7
2018-Feb-06 01:47N 36°49' E 030°55'14 0.4
2018-Feb-04 15:21N 36°48' E 030°37'3 8.9
2018-Feb-04 15:00N 36°48' E 030°41'5 8.5
2018-Feb-04 14:28N 36°48' E 030°47'1 1.5
2018-Feb-04 14:00N 36°48' E 030°48'1 2.2
2018-Feb-04 13:30N 36°48' E 030°49'1 2.7
2018-Feb-04 13:00N 36°47' E 030°50'1 2.7
2018-Feb-04 12:30N 36°46' E 030°51'1 2.7
2018-Feb-04 12:00N 36°45' E 030°53'1 2.7
2018-Feb-04 11:30N 36°45' E 030°54'4 2.3
2018-Feb-04 09:40N 36°41' E 030°57'8 0.9
2018-Feb-04 00:37N 36°49' E 030°54'0 3.0
2018-Feb-04 00:28N 36°49' E 030°54'1 1.7
2018-Feb-04 00:00N 36°49' E 030°55'8 0.5
2018-Feb-03 08:44N 36°41' E 030°57'1 4.2
2018-Feb-03 08:24N 36°42' E 030°55'3 8.1
2018-Feb-03 07:59N 36°45' E 030°57'3 2.0
2018-Feb-03 06:30N 36°47' E 030°53'1 2.5
2018-Feb-03 06:00N 36°47' E 030°52'1 2.3
2018-Feb-03 05:30N 36°47' E 030°50'1 2.3
2018-Feb-03 05:00N 36°47' E 030°49'8 8.0
2018-Feb-03 04:00N 36°48' E 030°39'3 6.5
2018-Feb-03 03:29N 36°48' E 030°35'0 0.0
2018-Feb-03 01:59N 36°48' E 030°35'0 0.0
2018-Feb-03 01:23N 36°48' E 030°35'0 0.0
2018-Feb-03 00:59N 36°48' E 030°35'0 0.0
2018-Feb-03 00:29N 36°48' E 030°35'0 0.0
2018-Feb-02 23:53N 36°48' E 030°35'0 0.0
2018-Feb-02 23:29N 36°48' E 030°35'0 0.0
2018-Feb-02 22:53N 36°48' E 030°35'0 0.0
2018-Feb-02 22:29N 36°48' E 030°35'0 0.0
2018-Feb-02 21:32N 36°48' E 030°35'0 0.0
2018-Feb-02 21:29N 36°48' E 030°35'0 0.0
2018-Feb-02 20:58N 36°48' E 030°35'4 8.2
2018-Feb-02 20:30N 36°48' E 030°40'5 9.3
2018-Feb-02 20:01N 36°48' E 030°45'10 2.1
2018-Feb-02 15:30N 36°42' E 030°54'2 2.1
2018-Feb-02 14:25N 36°41' E 030°56'  
2018-Jan-31 06:28N 36°47' E 030°58'0 1.1
2018-Jan-31 06:00N 36°47' E 030°57'1 2.6
2018-Jan-31 05:29N 36°47' E 030°55'1 2.5
2018-Jan-31 05:00N 36°47' E 030°54'1 2.5
2018-Jan-31 04:30N 36°47' E 030°52'2 2.7
2018-Jan-31 03:57N 36°48' E 030°50'1 2.7
2018-Jan-31 03:30N 36°48' E 030°49'2 3.4
2018-Jan-31 03:00N 36°49' E 030°47'3 6.9
2018-Jan-31 02:30N 36°48' E 030°43'4 7.4
2018-Jan-31 02:00N 36°48' E 030°38'3 4.5
2018-Jan-31 01:25N 36°48' E 030°35'0 0.0
2018-Jan-31 00:55N 36°48' E 030°35'0 0.0
2018-Jan-30 23:19N 36°48' E 030°35'0 0.0
2018-Jan-30 22:55N 36°48' E 030°35'0 0.0
2018-Jan-30 22:28N 36°48' E 030°35'0 0.0
2018-Jan-30 20:37N 36°48' E 030°35'0 0.0
2018-Jan-30 20:28N 36°48' E 030°35'0 0.0
2018-Jan-30 19:58N 36°48' E 030°35'0 0.0
2018-Jan-30 19:28N 36°48' E 030°35'0 0.0
2018-Jan-30 18:58N 36°48' E 030°35'0 0.0
2018-Jan-30 18:28N 36°48' E 030°35'0 0.0
2018-Jan-30 17:58N 36°48' E 030°35'0 0.0
2018-Jan-30 17:28N 36°48' E 030°35'0 0.0
2018-Jan-30 04:22N 36°48' E 030°35'0 0.0
2018-Jan-30 03:52N 36°48' E 030°35'0 0.0
2018-Jan-29 23:52N 36°48' E 030°35'0 0.0
2018-Jan-29 23:16N 36°48' E 030°35'0 0.0
2018-Jan-29 22:46N 36°48' E 030°35'0 0.0
2018-Jan-29 22:28N 36°48' E 030°35'0 0.0
2018-Jan-29 21:58N 36°48' E 030°35'0 0.0
2018-Jan-29 21:28N 36°48' E 030°35'0 0.0
2018-Jan-29 20:58N 36°48' E 030°35'0 0.0
2018-Jan-29 18:10N 36°48' E 030°35'0 0.0
2018-Jan-29 17:46N 36°48' E 030°35'0 0.0
2018-Jan-29 17:22N 36°48' E 030°35'0 0.0
2018-Jan-29 09:10N 36°48' E 030°35'0 0.0
2018-Jan-29 08:58N 36°48' E 030°35'0 0.0
2018-Jan-29 08:28N 36°48' E 030°35'0 0.0
2018-Jan-29 08:00N 36°48' E 030°35'0 0.0
2018-Jan-29 07:30N 36°48' E 030°35'0 0.0
2018-Jan-29 07:00N 36°48' E 030°35'0 0.0
2018-Jan-29 06:30N 36°48' E 030°35'0 0.0
2018-Jan-29 06:00N 36°48' E 030°35'0 0.0
2018-Jan-29 05:30N 36°48' E 030°35'0 0.0
2018-Jan-29 05:00N 36°48' E 030°35'0 0.0
2018-Jan-29 04:30N 36°48' E 030°35'0 0.0
2018-Jan-29 04:00N 36°48' E 030°35'0 0.0
2018-Jan-29 03:30N 36°48' E 030°35'0 0.0
2018-Jan-29 03:00N 36°48' E 030°35'0 0.0
2018-Jan-29 02:30N 36°48' E 030°35'0 0.0
2018-Jan-29 02:00N 36°48' E 030°35'0 0.0
2018-Jan-29 01:30N 36°48' E 030°35'  

Dump ship's entire track history